Time;durP1;ratioP1;P1;durP2;ratioP2;P2;SDS_P1;SDS_P2;PMS_P1;PMS_P2;Temp;Humidity;BMP_temperature;BMP_pressure;BME280_temperature;BME280_humidity;BME280_pressure;Samples;Min_cycle;Max_cycle;Signal;HPM_P1;HPM_P2
2024/02/20 00:00:23;;;;;;;8.63;7.70;;;;;;;-9.63;100.00;101280.97;5074476;28;20428;-70
2024/02/20 00:02:50;;;;;;;10.00;7.50;;;;;;;-9.65;100.00;101277.50;5076982;27;20128;-70
2024/02/20 00:05:16;;;;;;;6.85;6.28;;;;;;;-9.59;100.00;101275.28;5060444;28;20038;-71
2024/02/20 00:07:43;;;;;;;9.65;5.97;;;;;;;-9.65;100.00;101272.44;5075185;28;20497;-70
2024/02/20 00:10:13;;;;;;;13.70;7.63;;;;;;;-9.64;100.00;101269.13;5041827;28;20039;-70
2024/02/20 00:12:42;;;;;;;7.03;6.43;;;;;;;-9.58;100.00;101264.38;5042190;28;20571;-71
2024/02/20 00:15:11;;;;;;;10.15;8.57;;;;;;;-9.59;100.00;101267.69;5071849;28;20036;-71
2024/02/20 00:17:37;;;;;;;5.80;5.30;;;;;;;-9.57;100.00;101276.22;5046540;28;20127;-70
2024/02/20 00:20:08;;;;;;;5.43;5.03;;;;;;;-9.59;100.00;101272.75;5062794;28;20062;-71
2024/02/20 00:22:35;;;;;;;9.05;8.20;;;;;;;-9.64;100.00;101263.19;5050608;27;20414;-70
2024/02/20 00:25:02;;;;;;;7.20;6.30;;;;;;;-9.60;100.00;101263.44;5037380;28;20044;-70
2024/02/20 00:27:31;;;;;;;7.00;6.25;;;;;;;-9.58;100.00;101261.84;5056235;28;20478;-70
2024/02/20 00:29:57;;;;;;;9.82;7.40;;;;;;;-9.55;100.00;101259.47;5076266;28;20044;-71
2024/02/20 00:32:24;;;;;;;5.78;5.25;;;;;;;-9.49;100.00;101255.50;5083842;27;20084;-71
2024/02/20 00:34:50;;;;;;;4.95;4.22;;;;;;;-9.44;100.00;101251.53;5059507;27;20050;-71
2024/02/20 00:37:16;;;;;;;7.15;6.53;;;;;;;-9.43;100.00;101254.13;5066214;28;20127;-71
2024/02/20 00:39:42;;;;;;;4.38;4.07;;;;;;;-9.29;100.00;101252.25;5066396;28;20044;-71
2024/02/20 00:42:08;;;;;;;4.55;4.20;;;;;;;-9.22;100.00;101249.19;5066099;28;20053;-72
2024/02/20 00:44:35;;;;;;;4.07;3.78;;;;;;;-9.23;100.00;101250.00;5088892;28;20051;-71
2024/02/20 00:47:01;;;;;;;5.30;4.85;;;;;;;-9.19;100.00;101254.41;5072682;28;20123;-71
2024/02/20 00:49:27;;;;;;;13.80;7.05;;;;;;;-9.11;100.00;101250.56;5080157;28;20063;-70
2024/02/20 00:51:53;;;;;;;4.53;4.18;;;;;;;-9.06;100.00;101251.63;5064637;28;20411;-70
2024/02/20 00:54:21;;;;;;;9.63;8.70;;;;;;;-9.04;100.00;101245.00;5080124;28;20044;-71
2024/02/20 00:56:47;;;;;;;7.55;6.85;;;;;;;-9.19;100.00;101247.69;5085966;28;20029;-71
2024/02/20 00:59:14;;;;;;;7.35;6.75;;;;;;;-9.18;100.00;101246.03;5061855;28;20062;-71
2024/02/20 01:01:41;;;;;;;8.35;7.22;;;;;;;-9.17;100.00;101242.72;5075109;28;20104;-71
2024/02/20 01:04:07;;;;;;;3.35;3.17;;;;;;;-9.30;100.00;101250.53;5077368;28;20126;-71
2024/02/20 01:06:36;;;;;;;8.05;4.45;;;;;;;-9.49;100.00;101250.44;5073064;28;20047;-71
2024/02/20 01:09:03;;;;;;;7.38;6.68;;;;;;;-9.73;100.00;101248.47;5036906;28;20058;-70
2024/02/20 01:11:30;;;;;;;14.75;8.90;;;;;;;-10.13;100.00;101254.88;5059244;28;20152;-70
2024/02/20 01:13:56;;;;;;;9.88;8.85;;;;;;;-10.24;100.00;101263.63;5076605;27;20032;-72
2024/02/20 01:16:22;;;;;;;14.63;8.07;;;;;;;-10.07;100.00;101258.56;5074890;28;20051;-71
2024/02/20 01:18:48;;;;;;;7.82;7.13;;;;;;;-10.19;100.00;101262.19;5075663;28;20052;-72
2024/02/20 01:21:14;;;;;;;12.13;8.23;;;;;;;-10.14;100.00;101248.13;5072964;28;20131;-70
2024/02/20 01:23:41;;;;;;;23.00;9.43;;;;;;;-10.25;100.00;101254.31;5077424;27;20127;-70
2024/02/20 01:26:07;;;;;;;7.45;6.85;;;;;;;-10.27;100.00;101258.38;5059770;27;20182;-71
2024/02/20 01:28:34;;;;;;;17.58;10.50;;;;;;;-10.57;100.00;101259.38;5064671;28;20036;-71
2024/02/20 01:31:00;;;;;;;20.25;11.13;;;;;;;-10.91;100.00;101256.72;5077091;28;20044;-70
2024/02/20 01:33:26;;;;;;;21.77;11.75;;;;;;;-11.46;100.00;101262.97;5073297;28;20147;-72
2024/02/20 01:35:52;;;;;;;87.60;20.45;;;;;;;-11.46;100.00;101263.84;5057464;28;20037;-71
2024/02/20 01:38:18;;;;;;;22.92;15.07;;;;;;;-11.79;100.00;101261.97;5042091;28;20529;-71
2024/02/20 01:40:44;;;;;;;28.08;15.80;;;;;;;-12.08;100.00;101267.88;5074705;27;20044;-70
2024/02/20 01:43:10;;;;;;;30.75;14.90;;;;;;;-11.69;100.00;101260.03;5055053;27;20024;-71
2024/02/20 01:45:36;;;;;;;23.80;15.55;;;;;;;-11.69;100.00;101265.06;5073407;28;20044;-70
2024/02/20 01:48:03;;;;;;;31.00;12.02;;;;;;;-11.86;100.00;101263.28;5058553;28;20088;-71
2024/02/20 01:50:33;;;;;;;31.48;16.02;;;;;;;-11.96;100.00;101266.06;5072637;28;20089;-71
2024/02/20 01:52:59;;;;;;;7.78;7.07;;;;;;;-12.07;100.00;101263.72;5056670;28;20131;-71
2024/02/20 01:55:26;;;;;;;28.10;11.57;;;;;;;-11.79;100.00;101260.34;5058958;28;20028;-71
2024/02/20 01:57:53;;;;;;;11.82;10.65;;;;;;;-11.53;100.00;101250.81;5041791;28;20038;-69
2024/02/20 02:00:19;;;;;;;9.27;7.38;;;;;;;-11.65;100.00;101263.59;5056204;28;20048;-69
2024/02/20 02:02:45;;;;;;;26.35;7.63;;;;;;;-11.36;100.00;101266.06;5072700;28;20169;-69
2024/02/20 02:05:12;;;;;;;9.63;7.47;;;;;;;-11.37;100.00;101253.38;5072092;28;20040;-71
2024/02/20 02:07:39;;;;;;;5.90;5.35;;;;;;;-11.01;100.00;101249.47;5052110;28;20064;-71
2024/02/20 02:10:05;;;;;;;5.38;4.97;;;;;;;-10.95;100.00;101252.31;5077058;28;20048;-71
2024/02/20 02:12:31;;;;;;;9.38;7.93;;;;;;;-11.00;100.00;101238.59;5072608;28;20041;-70
2024/02/20 02:14:58;;;;;;;12.85;6.63;;;;;;;-10.98;100.00;101249.63;5038621;28;20111;-71
2024/02/20 02:17:24;;;;;;;6.90;6.20;;;;;;;-10.96;100.00;101236.31;5074089;28;20588;-70
2024/02/20 02:19:51;;;;;;;8.35;7.50;;;;;;;-10.95;100.00;101235.53;5071636;28;20048;-71
2024/02/20 02:22:17;;;;;;;6.97;6.38;;;;;;;-10.97;100.00;101244.66;5055985;28;20051;-70
2024/02/20 02:24:44;;;;;;;12.80;6.03;;;;;;;-10.97;100.00;101239.63;5056329;28;20040;-70
2024/02/20 02:27:11;;;;;;;9.98;7.88;;;;;;;-10.97;100.00;101244.66;5071635;28;20539;-71
2024/02/20 02:29:37;;;;;;;7.95;7.15;;;;;;;-10.95;100.00;101240.56;5062558;28;20033;-71
2024/02/20 02:32:04;;;;;;;4.45;3.83;;;;;;;-10.98;100.00;101245.44;5058428;28;20047;-71
2024/02/20 02:34:30;;;;;;;9.93;7.53;;;;;;;-10.99;100.00;101248.75;5054768;27;20544;-70
2024/02/20 02:36:56;;;;;;;7.38;6.07;;;;;;;-11.06;100.00;101251.75;5079491;28;20044;-70
2024/02/20 02:39:23;;;;;;;14.40;12.52;;;;;;;-11.14;100.00;101242.91;5080232;28;20139;-71
2024/02/20 02:41:50;;;;;;;11.95;7.45;;;;;;;-11.26;100.00;101242.25;5072565;28;20571;-70
2024/02/20 02:44:17;;;;;;;32.00;21.70;;;;;;;-11.27;100.00;101248.06;5063134;28;20042;-71
2024/02/20 02:46:43;;;;;;;33.60;19.10;;;;;;;-11.31;100.00;101248.66;5058651;28;20036;-70
2024/02/20 02:49:10;;;;;;;24.52;15.27;;;;;;;-11.37;100.00;101243.31;5078029;27;20042;-70
2024/02/20 02:51:36;;;;;;;28.08;16.52;;;;;;;-11.35;100.00;101237.56;5059323;28;20044;-71
2024/02/20 02:54:02;;;;;;;18.02;11.80;;;;;;;-11.34;100.00;101240.94;5076461;28;20072;-70
2024/02/20 02:56:28;;;;;;;14.63;9.15;;;;;;;-11.29;100.00;101242.97;5079359;28;20043;-71
2024/02/20 02:58:55;;;;;;;8.93;8.10;;;;;;;-11.38;100.00;101244.09;5077998;28;20060;-71
2024/02/20 03:01:22;;;;;;;7.65;6.85;;;;;;;-11.34;100.00;101239.31;5058591;28;20039;-70
2024/02/20 03:03:49;;;;;;;15.10;9.77;;;;;;;-11.55;100.00;101238.16;5057482;28;20601;-69
2024/02/20 03:06:15;;;;;;;12.80;10.75;;;;;;;-11.63;100.00;101241.88;5073322;28;20072;-69
2024/02/20 03:08:48;;;;;;;9.90;8.82;;;;;;;-11.57;100.00;101233.78;5062757;28;20032;-69
2024/02/20 03:11:15;;;;;;;15.23;10.77;;;;;;;-11.51;100.00;101241.66;5075403;27;20044;-70
2024/02/20 03:13:41;;;;;;;10.95;9.85;;;;;;;-11.45;100.00;101245.41;5037377;27;20519;-69
2024/02/20 03:16:07;;;;;;;6.15;5.55;;;;;;;-11.42;100.00;101244.72;5075993;27;20059;-70
2024/02/20 03:18:39;;;;;;;16.90;7.55;;;;;;;-11.42;100.00;101239.69;5067006;28;20040;-70
2024/02/20 03:21:09;;;;;;;8.35;7.70;;;;;;;-11.40;100.00;101241.50;5100276;27;20038;-69
2024/02/20 03:23:35;;;;;;;9.27;7.85;;;;;;;-11.40;100.00;101238.97;5058497;28;20046;-69
2024/02/20 03:26:02;;;;;;;5.25;4.85;;;;;;;-11.40;100.00;101238.09;5076415;27;20079;-69
2024/02/20 03:28:31;;;;;;;6.28;5.68;;;;;;;-11.41;100.00;101242.25;5061504;28;20790;-70
2024/02/20 03:30:57;;;;;;;5.53;5.03;;;;;;;-11.49;100.00;101243.50;5077746;27;20051;-70
2024/02/20 03:33:25;;;;;;;5.90;5.35;;;;;;;-11.53;100.00;101241.59;5075947;28;20139;-69
2024/02/20 03:35:52;;;;;;;9.68;7.00;;;;;;;-11.50;100.00;101243.41;5060085;28;20558;-69
2024/02/20 03:38:20;;;;;;;5.10;4.80;;;;;;;-11.53;100.00;101241.59;5055937;28;20046;-68
2024/02/20 03:40:46;;;;;;;11.55;7.47;;;;;;;-11.55;100.00;101237.28;5081506;27;20042;-69
2024/02/20 03:43:13;;;;;;;8.32;6.97;;;;;;;-11.54;100.00;101233.94;5064263;28;20028;-69
2024/02/20 03:45:39;;;;;;;6.22;5.20;;;;;;;-11.57;100.00;101237.19;5056923;28;20048;-69
2024/02/20 03:48:05;;;;;;;8.75;7.43;;;;;;;-11.50;100.00;101239.25;5078461;28;20036;-68
2024/02/20 03:50:33;;;;;;;10.30;7.93;;;;;;;-11.57;100.00;101233.78;5079653;27;20099;-69
2024/02/20 03:53:02;;;;;;;10.07;7.28;;;;;;;-11.58;100.00;101235.44;5053617;28;20037;-70
2024/02/20 03:55:28;;;;;;;6.30;5.80;;;;;;;-11.64;100.00;101242.66;5071712;28;20485;-69
2024/02/20 03:57:55;;;;;;;7.53;6.15;;;;;;;-11.67;100.00;101228.25;5060946;28;20041;-70
2024/02/20 04:00:24;;;;;;;7.40;6.85;;;;;;;-11.65;100.00;101234.22;5043109;28;20041;-71
2024/02/20 04:02:50;;;;;;;10.32;8.38;;;;;;;-11.65;100.00;101231.69;5048686;28;20174;-70
2024/02/20 04:05:17;;;;;;;7.07;6.20;;;;;;;-11.76;100.00;101232.81;5059766;27;20051;-71
2024/02/20 04:07:46;;;;;;;34.60;7.53;;;;;;;-11.81;100.00;101231.66;5068268;28;20035;-71
2024/02/20 04:10:13;;;;;;;106.80;14.55;;;;;;;-12.30;100.00;101234.72;5058560;28;20592;-70
2024/02/20 04:12:40;;;;;;;121.95;14.27;;;;;;;-12.74;100.00;101235.47;5033557;28;20039;-68
2024/02/20 04:15:07;;;;;;;116.70;11.60;;;;;;;-12.91;100.00;101238.63;5032288;28;20690;-69
2024/02/20 04:17:33;;;;;;;21.33;7.15;;;;;;;-12.25;100.00;101235.84;5045734;28;20048;-68
2024/02/20 04:20:07;;;;;;;7.90;7.20;;;;;;;-11.78;100.00;101241.06;5059072;28;20338;-68
2024/02/20 04:22:33;;;;;;;12.20;8.77;;;;;;;-11.54;100.00;101244.03;5050270;27;20043;-69
2024/02/20 04:24:59;;;;;;;7.22;6.45;;;;;;;-11.43;100.00;101245.50;5047292;27;20084;-69
2024/02/20 04:27:26;;;;;;;9.15;7.72;;;;;;;-11.47;100.00;101248.63;5092156;27;20529;-69
2024/02/20 04:29:52;;;;;;;13.90;9.75;;;;;;;-11.49;100.00;101247.69;5059318;28;20094;-69
2024/02/20 04:32:19;;;;;;;12.77;8.13;;;;;;;-11.55;100.00;101252.38;5073340;28;20040;-69
2024/02/20 04:34:45;;;;;;;26.80;10.70;;;;;;;-12.05;100.00;101255.47;5059579;27;20052;-70
2024/02/20 04:37:11;;;;;;;12.75;9.25;;;;;;;-11.91;100.00;101257.09;5058505;28;20071;-71
2024/02/20 04:39:39;;;;;;;15.10;8.02;;;;;;;-11.91;100.00;101256.25;5074685;28;20048;-71
2024/02/20 04:42:05;;;;;;;8.82;6.88;;;;;;;-12.01;100.00;101262.41;5026641;28;20892;-71
2024/02/20 04:44:31;;;;;;;9.93;8.80;;;;;;;-11.89;100.00;101265.63;5071705;28;20045;-71
2024/02/20 04:46:57;;;;;;;17.15;8.40;;;;;;;-11.96;100.00;101266.06;5057190;28;20047;-70
2024/02/20 04:49:24;;;;;;;11.50;9.35;;;;;;;-11.79;100.00;101270.41;5078452;28;20063;-70
2024/02/20 04:51:51;;;;;;;6.30;5.75;;;;;;;-11.74;100.00;101265.59;5075666;28;20040;-71
2024/02/20 04:54:17;;;;;;;9.10;8.13;;;;;;;-11.65;100.00;101272.00;5057061;28;20131;-70
2024/02/20 04:56:43;;;;;;;6.00;5.55;;;;;;;-11.77;100.00;101270.47;5075356;28;20040;-70
2024/02/20 04:59:09;;;;;;;8.40;7.10;;;;;;;-11.75;100.00;101277.34;5072887;28;20052;-71
2024/02/20 05:01:35;;;;;;;7.68;5.75;;;;;;;-11.60;100.00;101266.34;5091768;27;20047;-71
2024/02/20 05:04:01;;;;;;;8.32;6.20;;;;;;;-11.23;100.00;101262.56;5076644;28;20024;-71
2024/02/20 05:06:27;;;;;;;5.05;4.75;;;;;;;-10.70;100.00;101262.91;5071294;28;20047;-71
2024/02/20 05:08:53;;;;;;;13.52;6.80;;;;;;;-10.40;100.00;101267.00;5058073;28;20037;-71
2024/02/20 05:11:20;;;;;;;17.70;9.48;;;;;;;-10.54;100.00;101264.56;5056953;28;20038;-71
2024/02/20 05:13:46;;;;;;;8.05;7.22;;;;;;;-10.65;100.00;101259.84;5075537;28;20044;-71
2024/02/20 05:16:12;;;;;;;8.25;7.47;;;;;;;-10.06;100.00;101262.84;5053611;27;20123;-70
2024/02/20 05:18:38;;;;;;;9.57;8.18;;;;;;;-9.82;100.00;101268.25;5074842;28;20040;-73
2024/02/20 05:21:06;;;;;;;9.48;8.13;;;;;;;-9.62;100.00;101267.53;5036724;28;20041;-71
2024/02/20 05:23:32;;;;;;;8.35;5.57;;;;;;;-9.68;100.00;101276.47;5076484;28;20040;-72
2024/02/20 05:25:58;;;;;;;11.38;7.55;;;;;;;-9.61;100.00;101269.28;5076266;28;20131;-71
2024/02/20 05:28:27;;;;;;;11.43;8.35;;;;;;;-9.64;100.00;101266.59;5039278;28;20156;-71
2024/02/20 05:30:53;;;;;;;18.23;10.60;;;;;;;-9.53;100.00;101272.19;5101276;27;20044;-71
2024/02/20 05:33:20;;;;;;;14.35;9.27;;;;;;;-9.37;100.00;101274.63;5072389;27;20083;-71
2024/02/20 05:35:46;;;;;;;8.85;7.93;;;;;;;-9.06;100.00;101276.91;5053468;27;20392;-70
2024/02/20 05:38:14;;;;;;;7.18;5.57;;;;;;;-9.14;100.00;101266.47;5081016;27;20067;-73
2024/02/20 05:40:40;;;;;;;10.70;8.43;;;;;;;-8.71;100.00;101268.44;5054118;28;20028;-74
2024/02/20 05:43:06;;;;;;;6.78;6.18;;;;;;;-8.83;100.00;101271.25;5058540;28;20495;-74
2024/02/20 05:45:33;;;;;;;9.20;8.30;;;;;;;-8.41;100.00;101266.38;5075019;28;20075;-72
2024/02/20 05:48:02;;;;;;;16.23;9.45;;;;;;;-8.20;100.00;101263.06;5074826;28;20526;-72
2024/02/20 05:50:30;;;;;;;9.07;7.93;;;;;;;-7.96;100.00;101263.25;5066871;28;20036;-73
2024/02/20 05:52:56;;;;;;;10.82;8.68;;;;;;;-7.99;100.00;101264.00;5059073;28;20045;-73
2024/02/20 05:55:22;;;;;;;9.68;8.18;;;;;;;-7.99;100.00;101264.00;5050242;28;20045;-71
2024/02/20 05:57:48;;;;;;;12.23;10.82;;;;;;;-7.10;100.00;101245.59;5057929;28;20028;-73
2024/02/20 06:00:15;;;;;;;13.85;9.65;;;;;;;-7.71;100.00;101245.69;5076882;28;20075;-73
2024/02/20 06:02:41;;;;;;;10.85;8.65;;;;;;;-7.68;100.00;101253.44;5053002;27;20036;-73
2024/02/20 06:05:08;;;;;;;8.52;7.57;;;;;;;-7.48;100.00;101252.56;5039382;28;20099;-71
2024/02/20 06:07:34;;;;;;;7.53;6.35;;;;;;;-7.47;100.00;101255.97;5051847;28;20080;-72
2024/02/20 06:10:00;;;;;;;12.35;7.32;;;;;;;-7.10;100.00;101258.28;5052871;28;20052;-73
2024/02/20 06:12:30;;;;;;;8.55;7.70;;;;;;;-7.07;100.00;101248.25;5041712;28;20040;-74
2024/02/20 06:14:56;;;;;;;13.55;9.68;;;;;;;-6.99;100.00;101246.84;5080816;28;20064;-74
2024/02/20 06:17:22;;;;;;;12.18;7.72;;;;;;;-6.87;100.00;101247.28;5074328;28;20119;-74
2024/02/20 06:19:48;;;;;;;7.70;6.90;;;;;;;-6.81;100.00;101247.53;5070271;27;20097;-75
2024/02/20 06:22:14;;;;;;;8.40;7.55;;;;;;;-142.02;100.00;61695.09;5060637;28;20044;-72
2024/02/20 06:24:40;;;;;;;7.97;7.18;;;;;;;-142.02;100.00;61695.09;5073363;28;20131;-73
2024/02/20 06:27:07;;;;;;;11.13;7.40;;;;;;;-142.02;100.00;61695.09;5055357;28;20128;-72
2024/02/20 06:29:52;;;;;;;7.93;7.10;;;;;;;-142.02;100.00;61695.09;5058498;28;20036;-74
2024/02/20 06:32:19;;;;;;;8.80;7.82;;;;;;;-142.02;100.00;61695.09;5065437;27;20529;-73
2024/02/20 06:34:45;;;;;;;19.48;9.75;;;;;;;-142.02;100.00;61695.09;5054756;28;20041;-74
2024/02/20 06:37:12;;;;;;;9.05;6.28;;;;;;;-142.02;100.00;61695.09;5076147;28;20704;-73
2024/02/20 06:40:00;;;;;;;13.48;8.98;;;;;;;-142.02;100.00;61695.09;5059837;28;20042;-75
2024/02/20 06:42:29;;;;;;;8.95;7.10;;;;;;;-142.02;100.00;61695.09;5059453;28;20040;-74
2024/02/20 06:44:56;;;;;;;11.25;9.27;;;;;;;-142.02;100.00;61695.09;5056958;28;20135;-74
2024/02/20 06:47:22;;;;;;;8.88;7.72;;;;;;;-142.02;100.00;61695.09;5054359;28;20041;-73
2024/02/20 06:49:48;;;;;;;7.93;7.10;;;;;;;-142.02;100.00;61695.09;5069565;28;20075;-74
2024/02/20 06:52:14;;;;;;;9.82;7.28;;;;;;;-142.02;100.00;61695.09;5036560;28;20041;-74
2024/02/20 06:54:40;;;;;;;10.32;7.13;;;;;;;-142.02;100.00;61695.09;5039488;28;20052;-76
2024/02/20 06:57:07;;;;;;;9.18;6.57;;;;;;;-6.81;100.00;101247.53;5063846;28;20040;-75
2024/02/20 06:59:33;;;;;;;8.80;7.60;;;;;;;-5.70;100.00;101261.59;5043864;28;20053;-77
2024/02/20 07:01:59;;;;;;;7.30;5.80;;;;;;;-5.78;100.00;101256.22;5049720;27;20441;-75
2024/02/20 07:04:25;;;;;;;8.63;6.93;;;;;;;-5.67;100.00;101260.00;5063075;28;20086;-75
2024/02/20 07:06:51;;;;;;;8.68;7.32;;;;;;;-5.30;100.00;101268.00;5046124;28;20037;-76
2024/02/20 07:09:18;;;;;;;8.98;6.90;;;;;;;-5.34;100.00;101265.31;5054986;27;20041;-74
2024/02/20 07:11:46;;;;;;;13.10;9.75;;;;;;;-5.14;100.00;101268.50;5049910;28;20049;-75
2024/02/20 07:14:12;;;;;;;14.55;11.20;;;;;;;-142.02;100.00;61695.09;5050261;28;20049;-72
2024/02/20 07:16:38;;;;;;;8.20;7.38;;;;;;;-142.02;100.00;61695.09;5062210;28;20075;-73
2024/02/20 07:19:05;;;;;;;7.43;6.78;;;;;;;-5.53;100.00;101274.03;5068458;28;20621;-73
2024/02/20 07:21:31;;;;;;;7.75;7.05;;;;;;;-5.39;100.00;101272.78;5048029;28;20041;-73
2024/02/20 07:23:57;;;;;;;8.40;6.22;;;;;;;-5.57;100.00;101277.31;5047569;28;20124;-73
2024/02/20 07:26:27;;;;;;;11.00;9.05;;;;;;;-4.50;100.00;101261.91;5094682;27;20131;-73
2024/02/20 07:28:53;;;;;;;7.43;6.82;;;;;;;-142.02;100.00;61695.09;5152669;27;20035;-74
2024/02/20 07:31:25;;;;;;;5.90;5.43;;;;;;;-142.02;100.00;61695.09;5056629;27;20123;-75
2024/02/20 07:33:52;;;;;;;9.15;6.85;;;;;;;-142.02;100.00;61695.09;5028290;28;20054;-75
2024/02/20 07:36:19;;;;;;;7.00;6.22;;;;;;;-4.69;100.00;101263.91;5045335;28;20159;-74
2024/02/20 07:38:45;;;;;;;7.78;6.25;;;;;;;-142.02;100.00;61695.09;5046847;28;20045;-74
2024/02/20 07:41:12;;;;;;;10.95;8.13;;;;;;;-142.02;100.00;61695.09;5048519;27;20637;-75
2024/02/20 07:43:41;;;;;;;12.23;8.23;;;;;;;-142.02;100.00;61695.09;5048020;28;20036;-72
2024/02/20 07:46:07;;;;;;;5.85;5.45;;;;;;;-142.02;100.00;61695.09;5014545;27;20106;-74
2024/02/20 07:48:33;;;;;;;11.13;7.32;;;;;;;-142.02;100.00;61695.09;5006906;28;20042;-74
2024/02/20 07:50:59;;;;;;;18.08;10.63;;;;;;;-142.02;100.00;61695.09;5007248;28;20033;-75
2024/02/20 07:53:25;;;;;;;11.77;8.75;;;;;;;-142.02;100.00;61695.09;5023104;28;20163;-74
2024/02/20 07:55:51;;;;;;;9.00;7.47;;;;;;;-142.02;100.00;61695.09;5016920;28;20472;-75
2024/02/20 07:58:18;;;;;;;16.67;9.57;;;;;;;-142.02;100.00;61695.09;5012975;28;20049;-74
2024/02/20 08:01:03;;;;;;;18.02;9.45;;;;;;;-142.02;100.00;61695.09;5048311;27;20037;-74
2024/02/20 08:03:29;;;;;;;9.77;6.30;;;;;;;-4.37;100.00;101269.09;5080873;28;20082;-74
2024/02/20 08:05:56;;;;;;;16.13;10.02;;;;;;;-3.16;100.00;101266.25;5009836;28;20153;-74
2024/02/20 08:08:22;;;;;;;15.90;10.82;;;;;;;-3.18;100.00;101268.78;5028012;28;20033;-74
2024/02/20 08:10:48;;;;;;;10.52;7.80;;;;;;;-3.18;100.00;101268.78;4994084;28;20068;-74
2024/02/20 08:13:14;;;;;;;14.32;9.27;;;;;;;-4.11;100.00;101268.94;5010503;28;20041;-74
2024/02/20 08:15:40;;;;;;;21.33;12.05;;;;;;;-4.37;100.00;101279.28;5002063;28;20046;-74
2024/02/20 08:18:06;;;;;;;12.70;10.25;;;;;;;-4.99;100.00;101268.94;4958912;28;20095;-73
2024/02/20 08:20:51;;;;;;;11.27;7.72;;;;;;;-5.90;100.00;101269.44;5007840;28;20113;-73
2024/02/20 08:23:17;;;;;;;12.75;7.88;;;;;;;-3.73;100.00;101266.56;4990558;28;20049;-74
2024/02/20 08:25:43;;;;;;;7.28;5.57;;;;;;;-142.02;100.00;61695.09;4997374;28;20068;-74
2024/02/20 08:28:10;;;;;;;10.82;6.50;;;;;;;-142.02;100.00;61695.09;5010068;28;20544;-73
2024/02/20 08:30:36;;;;;;;5.55;4.60;;;;;;;-142.02;100.00;61695.09;5009493;28;20282;-74
2024/02/20 08:33:03;;;;;;;4.38;4.00;;;;;;;-142.02;100.00;61695.09;5008854;28;20042;-74
2024/02/20 08:35:29;;;;;;;5.35;4.95;;;;;;;-142.02;100.00;61695.09;4960320;28;20134;-74
2024/02/20 08:37:56;;;;;;;6.40;4.85;;;;;;;-142.02;100.00;61695.09;5047755;27;20049;-74
2024/02/20 08:40:23;;;;;;;6.65;5.32;;;;;;;-142.02;100.00;61695.09;5047264;27;20567;-75
2024/02/20 08:42:49;;;;;;;5.93;4.88;;;;;;;-1.88;100.00;101250.16;5047630;27;20453;-74
2024/02/20 08:45:16;;;;;;;7.50;5.85;;;;;;;-142.02;100.00;61695.09;5115040;27;20332;-72
2024/02/20 08:47:42;;;;;;;6.30;5.72;;;;;;;-1.76;100.00;101254.59;5046958;27;20052;-74
2024/02/20 08:50:09;;;;;;;6.28;5.65;;;;;;;-1.69;100.00;101252.19;5029791;27;20538;-74
2024/02/20 08:52:35;;;;;;;5.78;5.00;;;;;;;-1.79;100.00;101245.19;5029448;27;20053;-75
2024/02/20 08:55:03;;;;;;;5.03;4.60;;;;;;;-0.19;100.00;101245.75;5044356;27;20544;-73
2024/02/20 08:57:30;;;;;;;4.78;4.38;;;;;;;-142.02;100.00;61695.09;4993186;28;20041;-75
2024/02/20 08:59:57;;;;;;;5.38;4.88;;;;;;;-142.02;100.00;61695.09;5010027;28;20057;-75
2024/02/20 09:02:24;;;;;;;7.28;5.18;;;;;;;-142.02;100.00;61695.09;5018300;28;20046;-75
2024/02/20 09:04:51;;;;;;;8.50;5.78;;;;;;;-142.02;100.00;61695.09;5002916;28;20076;-73
2024/02/20 09:07:18;;;;;;;5.72;5.05;;;;;;;-142.02;100.00;61695.09;5091912;28;20049;-74
2024/02/20 09:09:44;;;;;;;5.18;4.68;;;;;;;-142.02;100.00;61695.09;5057228;28;20429;-74
2024/02/20 09:12:11;;;;;;;10.77;4.70;;;;;;;-1.09;94.08;101221.56;5083991;28;20045;-75
2024/02/20 09:14:37;;;;;;;5.63;5.13;;;;;;;0.33;94.13;101216.31;5023999;28;20125;-74
2024/02/20 09:17:03;;;;;;;4.50;4.10;;;;;;;0.33;94.13;101216.31;5092499;28;20537;-74
2024/02/20 09:19:29;;;;;;;6.22;4.63;;;;;;;-0.15;89.72;101215.03;5085958;28;20426;-75
2024/02/20 09:21:55;;;;;;;4.35;4.00;;;;;;;-0.24;90.44;101220.06;5107726;28;20071;-74
2024/02/20 09:24:21;;;;;;;4.35;4.05;;;;;;;-0.24;90.44;101220.06;5088708;28;20038;-72
2024/02/20 09:26:47;;;;;;;3.65;3.40;;;;;;;-1.63;99.30;101218.16;5019493;28;20340;-72
2024/02/20 09:29:14;;;;;;;3.70;3.40;;;;;;;-1.61;100.00;101213.94;5024099;28;20090;-72
2024/02/20 09:31:40;;;;;;;4.32;4.03;;;;;;;-3.48;100.00;101211.03;5005852;28;20045;-73
2024/02/20 09:34:06;;;;;;;3.80;3.22;;;;;;;-142.02;100.00;61695.09;5004580;28;20045;-73
2024/02/20 09:36:32;;;;;;;5.90;3.20;;;;;;;-3.97;100.00;101209.84;5005442;28;20053;-73
2024/02/20 09:38:58;;;;;;;3.85;3.50;;;;;;;-3.81;100.00;101219.59;5006848;28;20571;-73
2024/02/20 09:41:25;;;;;;;3.72;3.42;;;;;;;-3.85;100.00;101212.69;5074151;28;20621;-73
2024/02/20 09:43:51;;;;;;;3.22;2.92;;;;;;;-3.74;100.00;101213.81;5005535;28;20065;-72
2024/02/20 09:46:19;;;;;;;3.85;3.55;;;;;;;-3.54;100.00;101200.69;5022647;28;20095;-73
2024/02/20 09:48:49;;;;;;;3.65;3.38;;;;;;;-3.55;100.00;101209.16;5006561;28;20050;-73
2024/02/20 09:51:19;;;;;;;5.05;3.92;;;;;;;-3.83;100.00;101207.63;5006309;28;20049;-73
2024/02/20 09:53:45;;;;;;;3.45;3.22;;;;;;;-3.79;100.00;101199.22;5023728;28;20037;-73
2024/02/20 09:56:12;;;;;;;5.32;3.90;;;;;;;-3.60;100.00;101206.50;5073726;28;20049;-73
2024/02/20 09:58:38;;;;;;;4.13;3.78;;;;;;;-3.71;100.00;101198.59;5005739;28;20084;-73
2024/02/20 10:01:05;;;;;;;3.35;3.13;;;;;;;-3.75;100.00;101193.38;5024272;28;20037;-73
2024/02/20 10:03:32;;;;;;;2.92;2.72;;;;;;;-3.66;100.00;101195.28;4993255;28;20042;-74
2024/02/20 10:05:59;;;;;;;4.07;3.78;;;;;;;-3.40;100.00;101202.72;5005557;28;20049;-74
2024/02/20 10:08:27;;;;;;;2.30;2.20;;;;;;;-3.58;100.00;101199.75;5024469;28;20106;-74
2024/02/20 10:10:54;;;;;;;3.78;3.00;;;;;;;-3.73;100.00;101199.38;5025043;28;20060;-74
2024/02/20 10:13:20;;;;;;;3.95;3.65;;;;;;;-3.88;100.00;101197.31;5004881;28;20073;-73
2024/02/20 10:15:48;;;;;;;2.83;2.58;;;;;;;-3.97;100.00;101197.09;5020647;28;20054;-74
2024/02/20 10:18:17;;;;;;;3.03;2.65;;;;;;;-4.01;100.00;101196.97;5006555;28;20129;-74
2024/02/20 10:20:45;;;;;;;2.95;2.72;;;;;;;-3.97;100.00;101191.13;4988936;28;20083;-74
2024/02/20 10:23:13;;;;;;;2.60;2.40;;;;;;;-3.82;100.00;101199.13;5005557;28;20509;-74
2024/02/20 10:25:39;;;;;;;3.22;3.03;;;;;;;-3.80;100.00;101197.50;4979784;28;20046;-73
2024/02/20 10:28:06;;;;;;;2.95;2.75;;;;;;;-3.86;100.00;101176.97;4969872;28;20042;-75
2024/02/20 10:30:32;;;;;;;3.97;3.55;;;;;;;-3.95;100.00;101186.91;4987354;28;20050;-74
2024/02/20 10:32:58;;;;;;;3.33;3.05;;;;;;;-4.11;100.00;101188.22;4987748;28;20038;-74
2024/02/20 10:35:25;;;;;;;3.45;3.22;;;;;;;-4.00;100.00;101191.91;5029481;28;20542;-74
2024/02/20 10:38:04;;;;;;;3.45;3.15;;;;;;;-4.00;100.00;101189.38;5089096;28;20039;-74
2024/02/20 10:40:30;;;;;;;4.07;3.60;;;;;;;-4.13;100.00;101191.56;5097048;28;20303;-78
2024/02/20 10:42:57;;;;;;;2.72;2.53;;;;;;;-3.97;100.00;101196.22;5107699;28;20043;-74
2024/02/20 10:45:24;;;;;;;3.40;3.20;;;;;;;-3.88;100.00;101183.69;5064241;28;20473;-74
2024/02/20 10:47:52;;;;;;;3.72;3.40;;;;;;;-3.71;100.00;101183.28;4989585;28;20083;-73
2024/02/20 10:50:18;;;;;;;3.22;3.03;;;;;;;-3.46;100.00;101183.84;5065204;28;20105;-74
2024/02/20 10:52:45;;;;;;;3.05;2.85;;;;;;;-3.75;100.00;101178.06;5016832;28;20101;-74
2024/02/20 10:55:11;;;;;;;2.28;2.17;;;;;;;-3.76;100.00;101171.22;5016206;28;20177;-74
2024/02/20 10:57:41;;;;;;;2.83;2.67;;;;;;;-4.12;100.00;101175.44;5120529;28;20050;-73
2024/02/20 11:00:11;;;;;;;2.13;2.03;;;;;;;-4.13;100.00;101176.25;5121285;27;20052;-74
2024/02/20 11:02:41;;;;;;;4.47;3.20;;;;;;;-4.17;100.00;101179.56;5099777;28;20035;-74
2024/02/20 11:05:13;;;;;;;2.47;2.33;;;;;;;-4.11;100.00;101179.69;5081648;27;20432;-75
2024/02/20 11:07:40;;;;;;;2.92;2.72;;;;;;;-3.94;100.00;101175.91;5030068;28;20053;-73